createdAt,value
2023-04-21T00:01:26.384Z,5.80
2023-04-21T00:03:53.267Z,5.74
2023-04-21T00:06:23.058Z,5.68
2023-04-21T00:08:50.950Z,5.59
2023-04-21T00:11:18.404Z,5.61
2023-04-21T00:13:45.313Z,5.64
2023-04-21T00:16:12.149Z,5.70
2023-04-21T00:18:38.955Z,5.65
2023-04-21T00:21:05.698Z,5.67
2023-04-21T00:23:32.353Z,5.64
2023-04-21T00:25:59.565Z,5.64
2023-04-21T00:28:26.260Z,5.65
2023-04-21T00:30:54.501Z,5.65
2023-04-21T00:33:21.228Z,5.78
2023-04-21T00:35:47.785Z,5.79
2023-04-21T00:38:14.368Z,5.76
2023-04-21T00:40:41.064Z,5.77
2023-04-21T00:43:07.808Z,5.76
2023-04-21T00:45:34.497Z,5.64
2023-04-21T00:48:01.202Z,5.35
2023-04-21T00:50:28.571Z,5.16
2023-04-21T00:52:56.387Z,5.07
2023-04-21T00:55:23.294Z,5.02
2023-04-21T00:57:52.299Z,4.98
2023-04-21T01:00:19.173Z,5.01
2023-04-21T01:02:46.551Z,4.99
2023-04-21T01:05:13.622Z,5.05
2023-04-21T01:07:40.416Z,5.02
2023-04-21T01:10:07.900Z,4.97
2023-04-21T01:12:42.509Z,4.91
2023-04-21T01:15:09.618Z,4.84
2023-04-21T01:17:38.698Z,4.81
2023-04-21T01:20:09.032Z,4.78
2023-04-21T01:22:41.860Z,4.74
2023-04-21T01:25:09.852Z,4.65
2023-04-21T01:27:36.942Z,4.67
2023-04-21T01:30:05.605Z,4.66
2023-04-21T01:32:32.781Z,4.63
2023-04-21T01:34:59.920Z,4.57
2023-04-21T01:37:30.775Z,4.58
2023-04-21T01:40:00.088Z,4.57
2023-04-21T01:42:29.577Z,4.66
2023-04-21T01:44:56.885Z,4.69
2023-04-21T01:47:25.391Z,4.73
2023-04-21T01:49:52.857Z,4.71
2023-04-21T01:52:20.011Z,4.67
2023-04-21T01:54:46.692Z,4.65
2023-04-21T01:57:13.374Z,4.65
2023-04-21T01:59:40.099Z,4.63
2023-04-21T02:02:07.003Z,4.65
2023-04-21T02:04:34.346Z,4.62
2023-04-21T02:07:01.241Z,4.62
2023-04-21T02:09:28.246Z,4.65
2023-04-21T02:11:57.840Z,4.63
2023-04-21T02:14:25.803Z,4.47
2023-04-21T02:16:52.765Z,4.42
2023-04-21T02:19:19.812Z,4.40
2023-04-21T02:21:46.571Z,4.44
2023-04-21T02:24:13.175Z,4.42
2023-04-21T02:26:39.763Z,4.33
2023-04-21T02:29:06.512Z,4.30
2023-04-21T02:31:34.921Z,4.25
2023-04-21T02:34:07.768Z,4.27
2023-04-21T02:36:34.439Z,4.17
2023-04-21T02:39:01.209Z,4.17
2023-04-21T02:41:27.791Z,4.10
2023-04-21T02:43:54.348Z,4.01
2023-04-21T02:46:20.991Z,3.99
2023-04-21T02:48:47.619Z,3.97
2023-04-21T02:51:15.708Z,3.98
2023-04-21T02:53:42.765Z,3.98
2023-04-21T02:56:09.943Z,3.97
2023-04-21T02:58:37.428Z,3.97
2023-04-21T03:01:05.626Z,3.96
2023-04-21T03:03:33.284Z,3.97
2023-04-21T03:06:05.381Z,4.15
2023-04-21T03:08:32.648Z,4.24
2023-04-21T03:10:59.582Z,4.27
2023-04-21T03:13:26.328Z,4.24
2023-04-21T03:15:53.429Z,4.22
2023-04-21T03:18:20.093Z,4.24
2023-04-21T03:20:46.663Z,4.24
2023-04-21T03:23:13.705Z,4.26
2023-04-21T03:25:40.456Z,4.22
2023-04-21T03:28:07.300Z,4.09
2023-04-21T03:30:33.904Z,4.02
2023-04-21T03:33:00.729Z,3.98
2023-04-21T03:35:27.720Z,3.92
2023-04-21T03:37:54.784Z,3.89
2023-04-21T03:40:21.487Z,3.89
2023-04-21T03:42:48.008Z,3.84
2023-04-21T03:45:14.712Z,3.82
2023-04-21T03:47:41.495Z,3.70
2023-04-21T03:50:08.726Z,3.65
2023-04-21T03:52:35.433Z,3.58
2023-04-21T03:55:02.407Z,3.58
2023-04-21T03:57:29.233Z,3.49
2023-04-21T03:59:55.935Z,3.42
2023-04-21T04:02:22.809Z,3.53
2023-04-21T04:04:49.698Z,3.64
2023-04-21T04:07:17.736Z,3.62
2023-04-21T04:09:44.919Z,3.63
2023-04-21T04:12:12.019Z,3.57
2023-04-21T04:14:39.681Z,3.58
2023-04-21T04:17:06.534Z,3.55
2023-04-21T04:19:33.474Z,3.64
2023-04-21T04:22:01.619Z,3.62
2023-04-21T04:24:28.609Z,3.66
2023-04-21T04:26:55.480Z,3.63
2023-04-21T04:29:22.774Z,3.65
2023-04-21T04:31:52.754Z,3.64
2023-04-21T04:34:19.690Z,3.58
2023-04-21T04:36:48.175Z,3.57
2023-04-21T04:39:16.801Z,3.53
2023-04-21T04:41:43.516Z,3.57
2023-04-21T04:44:11.379Z,3.64
2023-04-21T04:46:39.374Z,3.70
2023-04-21T04:49:06.048Z,3.79
2023-04-21T04:51:32.845Z,3.90
2023-04-21T04:53:59.535Z,4.05
2023-04-21T04:56:26.284Z,4.15
2023-04-21T04:58:52.969Z,4.32
2023-04-21T05:01:19.673Z,4.48
2023-04-21T05:03:46.694Z,4.61
2023-04-21T05:06:14.553Z,4.74
2023-04-21T05:08:44.231Z,4.92
2023-04-21T05:11:11.100Z,5.13
2023-04-21T05:13:39.778Z,5.31
2023-04-21T05:16:07.630Z,5.50
2023-04-21T05:18:34.214Z,5.70
2023-04-21T05:21:01.061Z,5.89
2023-04-21T05:23:27.949Z,6.11
2023-04-21T05:25:54.639Z,6.35
2023-04-21T05:28:21.338Z,6.53
2023-04-21T05:30:48.151Z,6.63
2023-04-21T05:33:14.908Z,6.81
2023-04-21T05:35:41.602Z,7.01
2023-04-21T05:38:08.384Z,7.03
2023-04-21T05:40:34.996Z,7.20
2023-04-21T05:43:01.819Z,7.10
2023-04-21T05:45:28.463Z,7.18
2023-04-21T05:47:55.160Z,7.54
2023-04-21T05:50:21.929Z,7.77
2023-04-21T05:52:48.791Z,8.10
2023-04-21T05:55:15.480Z,8.35
2023-04-21T05:57:42.266Z,8.67
2023-04-21T06:00:09.739Z,8.65
2023-04-21T06:02:36.615Z,8.78
2023-04-21T06:05:03.907Z,8.98
2023-04-21T06:07:30.865Z,9.21
2023-04-21T06:09:58.138Z,9.51
2023-04-21T06:12:24.830Z,9.64
2023-04-21T06:14:51.635Z,9.39
2023-04-21T06:17:18.659Z,9.60
2023-04-21T06:19:45.520Z,9.80
2023-04-21T06:22:12.115Z,9.94
2023-04-21T06:24:38.824Z,10.16
2023-04-21T06:27:11.075Z,10.02
2023-04-21T06:29:37.883Z,10.51
2023-04-21T06:32:04.643Z,10.30
2023-04-21T06:34:31.548Z,10.51
2023-04-21T06:36:58.320Z,11.05
2023-04-21T06:39:24.996Z,11.08
2023-04-21T06:41:51.727Z,11.02
2023-04-21T06:44:19.209Z,11.51
2023-04-21T06:46:46.488Z,11.80
2023-04-21T06:49:13.143Z,12.16
2023-04-21T06:51:39.817Z,12.27
2023-04-21T06:54:06.494Z,12.26
2023-04-21T06:56:33.697Z,12.81
2023-04-21T06:59:00.385Z,13.01
2023-04-21T07:01:27.249Z,13.24
2023-04-21T07:03:54.136Z,12.92
2023-04-21T07:06:20.891Z,13.29
2023-04-21T07:08:47.522Z,13.79
2023-04-21T07:11:14.112Z,13.85
2023-04-21T07:13:40.884Z,14.26
2023-04-21T07:16:07.538Z,14.72
2023-04-21T07:18:34.847Z,15.43
2023-04-21T07:21:01.700Z,15.90
2023-04-21T07:23:28.593Z,15.67
2023-04-21T07:25:55.310Z,15.92
2023-04-21T07:28:22.162Z,16.17
2023-04-21T07:30:48.996Z,15.51
2023-04-21T07:33:15.912Z,15.53
2023-04-21T07:35:42.702Z,15.26
2023-04-21T07:38:09.892Z,15.27
2023-04-21T07:40:36.461Z,15.40
2023-04-21T07:43:03.471Z,15.21
2023-04-21T07:45:30.357Z,14.99
2023-04-21T07:47:57.180Z,14.61
2023-04-21T07:50:23.828Z,15.02
2023-04-21T07:52:50.641Z,14.92
2023-04-21T07:55:17.498Z,15.22
2023-04-21T07:57:44.249Z,15.23
2023-04-21T08:00:11.899Z,15.52
2023-04-21T08:02:38.621Z,15.59
2023-04-21T08:05:05.652Z,15.67
2023-04-21T08:07:32.358Z,15.84
2023-04-21T08:10:00.514Z,15.93
2023-04-21T08:12:27.508Z,16.04
2023-04-21T08:14:58.171Z,16.28
2023-04-21T08:17:25.403Z,16.47
2023-04-21T08:19:52.390Z,16.77
2023-04-21T08:22:19.010Z,16.70
2023-04-21T08:24:45.778Z,16.94
2023-04-21T08:27:12.626Z,17.11
2023-04-21T08:29:39.505Z,17.52
2023-04-21T08:32:06.389Z,17.24
2023-04-21T08:34:33.149Z,17.50
2023-04-21T08:36:59.890Z,17.08
2023-04-21T08:39:27.121Z,17.32
2023-04-21T08:41:54.200Z,17.13
2023-04-21T08:44:21.900Z,17.26
2023-04-21T08:46:52.129Z,18.01
2023-04-21T08:49:21.116Z,18.05
2023-04-21T08:51:48.189Z,18.26
2023-04-21T08:54:14.960Z,18.36
2023-04-21T08:56:41.821Z,18.79
2023-04-21T08:59:08.681Z,18.55
2023-04-21T09:02:16.462Z,18.72
2023-04-21T09:04:46.386Z,18.89
2023-04-21T09:07:32.494Z,19.05
2023-04-21T09:10:00.731Z,19.01
2023-04-21T09:12:28.390Z,18.77
2023-04-21T09:14:55.500Z,19.18
2023-04-21T09:17:27.913Z,18.91
2023-04-21T09:19:54.797Z,18.52
2023-04-21T09:22:27.073Z,19.02
2023-04-21T09:25:02.743Z,19.19
2023-04-21T09:27:29.648Z,19.67
2023-04-21T09:30:03.891Z,19.37
2023-04-21T09:32:30.929Z,19.41
2023-04-21T09:35:01.218Z,19.39
2023-04-21T09:37:34.008Z,19.51
2023-04-21T09:42:31.348Z,19.63
2023-04-21T09:45:16.417Z,19.69
2023-04-21T09:47:50.976Z,19.64
2023-04-21T09:50:35.776Z,19.02
2023-04-21T09:53:09.960Z,18.62
2023-04-21T09:55:37.190Z,19.04
2023-04-21T09:58:07.412Z,19.26
2023-04-21T10:00:39.738Z,19.26
2023-04-21T10:03:11.615Z,19.57
2023-04-21T10:05:42.058Z,19.79
2023-04-21T10:08:11.988Z,19.70
2023-04-21T10:10:40.104Z,19.80
2023-04-21T10:13:07.716Z,20.19
2023-04-21T10:15:38.812Z,20.31
2023-04-21T10:18:23.946Z,20.58
2023-04-21T10:20:56.854Z,20.53
2023-04-21T10:23:42.789Z,20.24
2023-04-21T10:26:11.053Z,20.00
2023-04-21T10:28:48.693Z,20.54
2023-04-21T10:31:23.844Z,20.76
2023-04-21T10:34:18.052Z,21.45
2023-04-21T10:36:57.707Z,21.39
2023-04-21T10:39:28.264Z,20.96
2023-04-21T10:41:59.250Z,20.67
2023-04-21T10:44:29.324Z,20.47
2023-04-21T10:46:59.088Z,20.64
2023-04-21T10:49:28.143Z,20.88
2023-04-21T10:51:57.997Z,21.43
2023-04-21T10:54:31.779Z,21.10
2023-04-21T10:56:59.512Z,21.14
2023-04-21T10:59:29.301Z,21.02
2023-04-21T11:01:56.174Z,20.48
2023-04-21T11:04:24.235Z,21.04
2023-04-21T11:07:15.196Z,20.62
2023-04-21T11:09:42.823Z,20.04
2023-04-21T11:12:18.406Z,20.20
2023-04-21T11:14:48.393Z,20.00
2023-04-21T11:17:17.230Z,19.57
2023-04-21T11:19:50.822Z,19.97
2023-04-21T11:22:20.024Z,20.27
2023-04-21T11:24:48.417Z,20.42
2023-04-21T11:27:15.759Z,19.86
2023-04-21T11:29:42.839Z,20.07
2023-04-21T11:32:10.268Z,20.66
2023-04-21T11:34:38.669Z,20.40
2023-04-21T11:37:08.629Z,20.35
2023-04-21T11:39:35.925Z,19.84
2023-04-21T11:42:03.239Z,19.96
2023-04-21T11:44:33.875Z,20.51
2023-04-21T11:47:01.177Z,20.62
2023-04-21T11:49:29.730Z,20.56
2023-04-21T11:51:56.879Z,20.28
2023-04-21T11:54:24.772Z,20.10
2023-04-21T11:56:54.970Z,20.18
2023-04-21T11:59:26.491Z,21.08
2023-04-21T12:01:54.749Z,21.37
2023-04-21T12:04:23.543Z,21.37
2023-04-21T12:07:05.318Z,21.13
2023-04-21T12:09:32.222Z,21.91
2023-04-21T12:12:02.016Z,21.49
2023-04-21T12:14:28.839Z,21.44
2023-04-21T12:16:57.887Z,21.00
2023-04-21T12:19:34.874Z,21.23
2023-04-21T12:22:02.043Z,21.62
2023-04-21T12:24:28.731Z,21.27
2023-04-21T12:26:56.251Z,20.71
2023-04-21T12:29:23.390Z,20.97
2023-04-21T12:31:50.119Z,21.05
2023-04-21T12:34:16.994Z,20.56
2023-04-21T12:36:43.885Z,20.72
2023-04-21T12:39:14.156Z,20.31
2023-04-21T12:41:41.066Z,20.80
2023-04-21T12:44:07.699Z,20.47
2023-04-21T12:46:34.603Z,20.27
2023-04-21T12:49:02.284Z,20.84
2023-04-21T12:51:29.183Z,20.95
2023-04-21T12:53:55.959Z,21.17
2023-04-21T12:56:22.813Z,21.27
2023-04-21T12:58:49.689Z,20.80
2023-04-21T13:01:17.378Z,21.05
2023-04-21T13:03:44.340Z,21.15
2023-04-21T13:06:12.036Z,21.25
2023-04-21T13:08:38.866Z,21.03
2023-04-21T13:11:05.899Z,20.92
2023-04-21T13:13:32.703Z,20.97
2023-04-21T13:15:59.484Z,20.88
2023-04-21T13:18:26.624Z,20.96
2023-04-21T13:20:53.609Z,21.16
2023-04-21T13:23:20.954Z,21.23
2023-04-21T13:25:48.465Z,21.18
2023-04-21T13:28:15.364Z,21.28
2023-04-21T13:30:45.702Z,20.95
2023-04-21T13:33:15.319Z,20.28
2023-04-21T13:35:42.778Z,20.53
2023-04-21T13:38:09.708Z,20.61
2023-04-21T13:40:37.260Z,20.65
2023-04-21T13:43:04.171Z,20.91
2023-04-21T13:45:31.599Z,20.81
2023-04-21T13:48:01.376Z,20.41
2023-04-21T13:50:28.473Z,20.40
2023-04-21T13:52:55.353Z,20.39
2023-04-21T13:55:22.209Z,20.23
2023-04-21T13:57:49.336Z,20.15
2023-04-21T14:00:16.785Z,20.45
2023-04-21T14:02:44.087Z,20.65
2023-04-21T14:05:11.296Z,20.61
2023-04-21T14:07:38.472Z,20.60
2023-04-21T14:10:08.799Z,20.69
2023-04-21T14:12:35.897Z,20.76
2023-04-21T14:15:05.426Z,20.76
2023-04-21T14:17:33.226Z,20.40
2023-04-21T14:20:00.969Z,20.45
2023-04-21T14:22:28.577Z,20.44
2023-04-21T14:24:55.261Z,20.42
2023-04-21T14:27:22.178Z,20.53
2023-04-21T14:29:49.296Z,20.28
2023-04-21T14:32:17.430Z,20.21
2023-04-21T14:34:44.572Z,20.17
2023-04-21T14:37:12.739Z,20.25
2023-04-21T14:39:39.489Z,20.24
2023-04-21T14:42:06.411Z,20.17
2023-04-21T14:44:34.064Z,20.27
2023-04-21T14:47:09.071Z,20.26
2023-04-21T14:49:40.324Z,20.22
2023-04-21T14:52:07.425Z,19.97
2023-04-21T14:54:34.364Z,19.81
2023-04-21T14:57:17.753Z,19.63
2023-04-21T14:59:47.463Z,19.67
2023-04-21T15:02:14.812Z,19.92
2023-04-21T15:04:41.952Z,20.01
2023-04-21T15:07:08.906Z,20.00
2023-04-21T15:09:39.385Z,20.06
2023-04-21T15:12:10.230Z,20.14
2023-04-21T15:14:37.290Z,20.10
2023-04-21T15:17:04.374Z,20.19
2023-04-21T15:19:32.008Z,20.22
2023-04-21T15:21:58.937Z,20.04
2023-04-21T15:24:30.906Z,20.09
2023-04-21T15:27:08.091Z,20.00
2023-04-21T15:29:35.105Z,19.88
2023-04-21T15:32:02.958Z,19.76
2023-04-21T15:34:29.817Z,19.63
2023-04-21T15:36:56.913Z,19.53
2023-04-21T15:39:23.917Z,19.37
2023-04-21T15:41:51.141Z,19.43
2023-04-21T15:44:17.953Z,19.35
2023-04-21T15:46:44.720Z,19.37
2023-04-21T15:49:11.781Z,19.30
2023-04-21T15:51:38.730Z,19.42
2023-04-21T15:54:05.702Z,19.39
2023-04-21T15:56:32.589Z,19.47
2023-04-21T15:58:59.612Z,19.43
2023-04-21T16:01:26.488Z,19.40
2023-04-21T16:03:53.628Z,19.37
2023-04-21T16:06:21.771Z,19.36
2023-04-21T16:08:48.819Z,19.23
2023-04-21T16:11:15.700Z,19.16
2023-04-21T16:13:42.720Z,19.18
2023-04-21T16:16:12.369Z,19.20
2023-04-21T16:18:42.447Z,19.09
2023-04-21T16:21:09.623Z,19.15
2023-04-21T16:23:37.258Z,19.08
2023-04-21T16:26:06.195Z,19.10
2023-04-21T16:28:33.030Z,19.16
2023-04-21T16:30:59.880Z,19.02
2023-04-21T16:33:26.785Z,18.87
2023-04-21T16:35:55.343Z,18.76
2023-04-21T16:38:24.043Z,18.68
2023-04-21T16:40:51.008Z,18.63
2023-04-21T16:43:17.823Z,18.64
2023-04-21T16:45:44.707Z,18.68
2023-04-21T16:48:11.519Z,18.63
2023-04-21T16:50:38.532Z,18.59
2023-04-21T16:53:05.369Z,18.49
2023-04-21T16:55:32.043Z,18.51
2023-04-21T16:57:59.962Z,18.46
2023-04-21T17:00:27.126Z,18.44
2023-04-21T17:02:54.265Z,18.44
2023-04-21T17:05:21.205Z,18.40
2023-04-21T17:07:48.541Z,18.33
2023-04-21T17:10:15.489Z,18.37
2023-04-21T17:12:42.777Z,18.34
2023-04-21T17:15:10.417Z,18.25
2023-04-21T17:17:43.221Z,18.23
2023-04-21T17:20:12.136Z,18.13
2023-04-21T17:22:40.002Z,18.07
2023-04-21T17:25:07.984Z,18.01
2023-04-21T17:27:36.774Z,18.08
2023-04-21T17:30:05.136Z,17.97
2023-04-21T17:32:33.995Z,17.87
2023-04-21T17:35:01.230Z,17.91
2023-04-21T17:37:30.472Z,17.86
2023-04-21T17:39:59.271Z,17.80
2023-04-21T17:42:28.218Z,17.80
2023-04-21T17:44:54.919Z,17.69
2023-04-21T17:47:27.719Z,17.71
2023-04-21T17:49:56.607Z,17.58
2023-04-21T17:52:23.403Z,17.52
2023-04-21T17:54:50.221Z,17.40
2023-04-21T17:57:17.150Z,17.35
2023-04-21T17:59:43.904Z,17.27
2023-04-21T18:02:13.900Z,17.23
2023-04-21T18:04:41.000Z,17.09
2023-04-21T18:07:08.221Z,16.99
2023-04-21T18:09:35.060Z,16.98
2023-04-21T18:12:01.953Z,16.97
2023-04-21T18:14:29.069Z,16.85
2023-04-21T18:16:55.886Z,16.69
2023-04-21T18:19:22.634Z,16.75
2023-04-21T18:21:49.293Z,16.66
2023-04-21T18:24:16.366Z,16.56
2023-04-21T18:26:43.570Z,16.55
2023-04-21T18:29:10.484Z,16.45
2023-04-21T18:31:37.370Z,16.42
2023-04-21T18:34:04.077Z,16.43
2023-04-21T18:36:33.514Z,16.29
2023-04-21T18:39:01.362Z,16.27
2023-04-21T18:41:28.234Z,16.23
2023-04-21T18:43:55.034Z,16.21
2023-04-21T18:46:22.243Z,16.11
2023-04-21T18:48:49.184Z,15.98
2023-04-21T18:51:15.899Z,16.01
2023-04-21T18:53:43.511Z,16.00
2023-04-21T18:56:10.141Z,15.85
2023-04-21T18:58:36.776Z,15.88
2023-04-21T19:01:03.745Z,15.90
2023-04-21T19:03:30.734Z,15.97
2023-04-21T19:05:57.477Z,15.89
2023-04-21T19:08:34.298Z,15.85
2023-04-21T19:11:08.136Z,15.85
2023-04-21T19:13:35.183Z,15.84
2023-04-21T19:16:01.926Z,15.78
2023-04-21T19:18:28.756Z,15.70
2023-04-21T19:20:55.409Z,15.73
2023-04-21T19:23:22.153Z,15.73
2023-04-21T19:25:54.854Z,15.70
2023-04-21T19:28:21.888Z,15.54
2023-04-21T19:30:49.005Z,15.34
2023-04-21T19:33:16.123Z,15.37
2023-04-21T19:35:43.218Z,15.24
2023-04-21T19:38:10.279Z,15.12
2023-04-21T19:40:37.217Z,15.02
2023-04-21T19:43:04.724Z,14.96
2023-04-21T19:45:31.555Z,14.86
2023-04-21T19:47:58.345Z,14.86
2023-04-21T19:50:25.301Z,14.80
2023-04-21T19:52:51.889Z,14.87
2023-04-21T19:55:18.790Z,14.79
2023-04-21T19:57:45.625Z,14.72
2023-04-21T20:00:13.152Z,14.72
2023-04-21T20:02:40.331Z,14.63
2023-04-21T20:05:08.742Z,14.63
2023-04-21T20:07:35.641Z,14.57
2023-04-21T20:10:02.817Z,14.43
2023-04-21T20:12:29.564Z,14.37
2023-04-21T20:14:56.728Z,14.27
2023-04-21T20:17:23.386Z,14.19
2023-04-21T20:19:50.154Z,14.17
2023-04-21T20:22:16.850Z,14.05
2023-04-21T20:24:43.563Z,14.06
2023-04-21T20:27:10.429Z,14.02
2023-04-21T20:29:37.684Z,14.03
2023-04-21T20:32:04.814Z,13.96
2023-04-21T20:34:31.560Z,13.99
2023-04-21T20:36:58.485Z,13.87
2023-04-21T20:39:25.544Z,13.93
2023-04-21T20:42:04.672Z,13.98
2023-04-21T20:44:39.009Z,13.88
2023-04-21T20:47:06.187Z,13.87
2023-04-21T20:49:33.019Z,13.89
2023-04-21T20:52:01.381Z,13.94
2023-04-21T20:54:28.969Z,13.97
2023-04-21T20:56:55.889Z,13.84
2023-04-21T20:59:22.810Z,13.80
2023-04-21T21:01:49.525Z,13.70
2023-04-21T21:04:16.358Z,13.71
2023-04-21T21:06:43.158Z,13.72
2023-04-21T21:09:10.384Z,13.76
2023-04-21T21:11:37.086Z,13.78
2023-04-21T21:14:03.937Z,13.79
2023-04-21T21:16:30.705Z,13.70
2023-04-21T21:18:57.490Z,13.66
2023-04-21T21:21:24.239Z,13.50
2023-04-21T21:23:51.459Z,13.47
2023-04-21T21:26:18.441Z,13.37
2023-04-21T21:28:45.126Z,13.41
2023-04-21T21:31:11.812Z,13.40
2023-04-21T21:33:41.045Z,13.34
2023-04-21T21:36:08.002Z,13.37
2023-04-21T21:38:34.773Z,13.50
2023-04-21T21:41:02.169Z,13.54
2023-04-21T21:43:28.807Z,13.54
2023-04-21T21:45:58.221Z,13.56
2023-04-21T21:48:27.764Z,13.55
2023-04-21T21:50:54.751Z,13.35
2023-04-21T21:53:21.482Z,13.32
2023-04-21T21:55:48.417Z,13.21
2023-04-21T21:58:16.632Z,13.23
2023-04-21T22:00:43.285Z,13.20
2023-04-21T22:03:10.183Z,13.22
2023-04-21T22:05:36.914Z,13.18
2023-04-21T22:08:04.323Z,13.17
2023-04-21T22:10:30.995Z,13.21
2023-04-21T22:12:57.955Z,13.15
2023-04-21T22:15:24.691Z,13.25
2023-04-21T22:17:51.665Z,13.33
2023-04-21T22:20:19.390Z,13.33
2023-04-21T22:22:46.083Z,13.37
2023-04-21T22:25:12.829Z,13.45
2023-04-21T22:27:40.052Z,13.46
2023-04-21T22:30:07.656Z,13.51
2023-04-21T22:32:34.455Z,13.46
2023-04-21T22:35:01.473Z,13.43
2023-04-21T22:37:28.375Z,13.37
2023-04-21T22:39:57.070Z,13.41
2023-04-21T22:42:24.146Z,13.40
2023-04-21T22:44:51.038Z,13.34
2023-04-21T22:47:17.733Z,13.31
2023-04-21T22:49:44.447Z,13.21
2023-04-21T22:52:11.218Z,13.22
2023-04-21T22:54:37.860Z,13.28
2023-04-21T22:57:06.097Z,13.26
2023-04-21T22:59:32.973Z,13.20
2023-04-21T23:01:59.721Z,13.20
2023-04-21T23:04:26.614Z,13.20
2023-04-21T23:06:53.178Z,13.13
2023-04-21T23:09:19.839Z,13.17
2023-04-21T23:11:46.488Z,13.16
2023-04-21T23:14:13.236Z,13.12
2023-04-21T23:16:39.906Z,13.17
2023-04-21T23:19:06.502Z,13.12
2023-04-21T23:21:33.296Z,13.03
2023-04-21T23:23:59.943Z,12.96
2023-04-21T23:26:26.772Z,12.98
2023-04-21T23:28:53.455Z,13.00
2023-04-21T23:31:20.147Z,13.06
2023-04-21T23:33:46.870Z,13.08
2023-04-21T23:36:13.539Z,12.99
2023-04-21T23:38:40.212Z,13.02
2023-04-21T23:41:06.961Z,12.97
2023-04-21T23:43:34.743Z,12.90
2023-04-21T23:46:01.530Z,12.93
2023-04-21T23:48:28.315Z,12.94
2023-04-21T23:50:55.296Z,12.87
2023-04-21T23:53:22.141Z,12.79
2023-04-21T23:55:48.887Z,12.74
2023-04-21T23:58:15.483Z,12.78
